Relevés horaires Chievres (Belgique)


Relevés horaires à Chievres - Mercredi 11 Oct. 2017
Heure UTC1 Température [°C] Vent [km/h] Hum. [%] Pres.4 [hPa] Visi. [Km] Nébu. [octa] Préc.5 [mm] Cond.
2m. Res. Ros. Dir.2 Vit. Moy. Raf.3
23:00 15.2 14.5 11.4 SSO 13.0 -- 18.5 78 1015.2(-0.1/3h) 20 -- -- --
22:00 15.0 14.5 11.1 SSO 11.1 -- 16.7 77 1015.2(0.1/3h) 20 -- -- --
21:00 14.7 13.9 10.6 SSO 13.0 -- 22.2 76 1015.2(-0.1/3h) 20 -- -- --
20:00 14.8 14 10.3 SSO 13.0 -- 22.2 74 1015.3(0.4/3h) 20 -- -- --
19:00 15.0 14.1 10.2 SSO 14.8 -- 20.4 73 1015.2(0.1/3h) 20 -- -- --
18:00 14.3 13.6 9.7 SSO 11.1 -- 22.2 74 1015.3(-0.2/3h) 20 -- -- --
17:00 14.3 13.4 9.0 SSO 13.0 -- 22.2 70 1015(-0.7/3h) 20 -- -- --
16:00 15.0 14.1 9.1 SSO 14.8 -- 22.2 68 1015(-0.9/3h) 20 -- -- --
15:00 15.1 14.2 9.3 SO 14.8 -- 20.4 68 1015.6(-0.7/3h) 20 -- -- --
14:00 15.5 14.9 9.7 SO 13.0 -- 20.4 68 1015.7(-1.1/3h) 20 -- -- --
13:00 15.4 14.8 9.9 SO 13.0 -- 20.4 70 1016(-1.1/3h) 20 -- -- --
12:00 14.8 14.2 10.0 SO 11.1 -- 22.2 73 1016.3(-0.8/3h) 20 -- -- --
11:00 14.8 13.9 11.1 SSO 14.8 -- 22.2 78 1016.7(-0.3/3h) 20 -- -- --
10:00 14.6 13.8 11.0 SSO 13.0 -- 20.4 79 1017.1(0.0/3h) 20 -- -- --
09:00 14.3 13.6 11.0 SSO 11.1 -- 16.7 81 1017.2(0.4/3h) 20 -- -- --
08:00 13.8 13 11.7 SSO 11.1 -- 16.7 87 1017.2(0.0/3h) 19 -- -- --
07:00 13.6 13 11.8 SSO 9.3 -- 14.8 89 1017.2(-0.1/3h) 20 -- -- --
06:00 13.3 13 11.1 SSO 7.4 -- 14.8 87 1016.8(-0.6/3h) 20 -- -- --
05:00 13.1 12.8 11.2 SSO 7.4 -- 11.1 88 1017.2(-0.5/3h) 20 -- -- --
04:00 13.0 12.6 11.6 SSO 7.4 -- 13.0 91 1017.2(-0.6/3h) 20 -- -- --
03:00 13.3 12.7 11.4 SSO 9.3 -- 14.8 88 1017.5(-0.4/3h) 20 -- -- --
02:00 13.1 12.4 11.3 SO 9.3 -- 13.0 89 1017.7(-0.7/3h) 20 -- -- --
01:00 13.1 12.4 11.1 SO 9.3 -- 14.8 88 1018(-0.6/3h) 20 -- -- --
00:00 12.8 12.1 10.9 SSO 9.3 -- 13.0 88 1018(-0.6/3h) 19 -- -- --

1 Coordinated Universal Time. Actuellement il est 00:00 locale et 22:00 UTC.

2 Le vent souffle depuis la direction indiquée vers la direction oposée.

3 Les rafales max. sont disponible 40 min après l'heure du relevé.

4 Pour les stations d'altitude (plus de 600m) le géopotentiel du niveau le plus proche de la pression obligatoire est indiqué.

5 Les stations disposant d'un diffuseur peuvent indiquer "trace". Cela signifie que des précipitations ont touchés le sol mais que la quantité est inférieure à 0.1 mm.

Récapitulatif de la journée
Température [°C] Vent [km/h] Ensoleillement4 [h] Precipitations totale5 [mm] Pression [Hpa]
Min1 Max.2 Moy.3 Max. Min Max.
12.6 15.7 0 22.2 0 h 0 min 0 1015.0 1018.0

1 Température minimale relevée entre 18:00 UTC la veille et 18:00 UTC le jour donné.

2 Température maximale relevée entre 06:00 UTC le jour donné et 06:00 UTC le lendemain.

3 Vent moyen de la journée basé sur les relevés horaires.

4 Ensoleillement en heures relevé entre 06:00 UTC la veille et 06:00 UTC le jour donné.

5 Précipitations totales tombées entre 06:00 UTC la jour donné et 06:00 UTC le lendemain.

Graphiques horaires